Time;durP1;ratioP1;P1;durP2;ratioP2;P2;SDS_P1;SDS_P2;PMS_P1;PMS_P2;Temp;Humidity;BMP_temperature;BMP_pressure;BME280_temperature;BME280_humidity;BME280_pressure;Samples;Min_cycle;Max_cycle;Signal;HPM_P1;HPM_P2
2022/04/13 00:00:40;;;;;;;11.10;6.88;;;14.10;99.90;;;;;;4993261;28;20049;-72
2022/04/13 00:03:06;;;;;;;9.65;6.75;;;14.00;99.90;;;;;;5007543;28;20041;-72
2022/04/13 00:05:32;;;;;;;11.10;7.13;;;14.10;99.90;;;;;;5000964;28;20722;-72
2022/04/13 00:07:58;;;;;;;10.80;6.80;;;14.00;99.90;;;;;;4992205;28;20045;-72
2022/04/13 00:10:24;;;;;;;12.20;6.63;;;14.00;99.90;;;;;;4974261;28;21014;-72
2022/04/13 00:12:50;;;;;;;11.68;7.20;;;13.90;99.90;;;;;;4993041;28;20045;-72
2022/04/13 00:15:16;;;;;;;10.63;6.57;;;13.90;99.90;;;;;;4972129;28;20048;-72
2022/04/13 00:17:42;;;;;;;12.65;7.38;;;13.80;99.90;;;;;;4994293;28;20949;-72
2022/04/13 00:20:08;;;;;;;11.90;7.30;;;13.80;99.90;;;;;;4996921;28;20075;-72
2022/04/13 00:22:34;;;;;;;13.93;7.63;;;13.70;99.90;;;;;;4993651;28;20045;-72
2022/04/13 00:25:00;;;;;;;14.55;7.72;;;13.50;99.90;;;;;;4995408;28;20092;-72
2022/04/13 00:27:26;;;;;;;14.60;7.95;;;13.50;99.90;;;;;;4998408;28;20911;-72
2022/04/13 00:29:51;;;;;;;9.48;6.65;;;13.50;99.90;;;;;;4966498;28;20049;-72
2022/04/13 00:32:17;;;;;;;11.18;6.90;;;13.40;99.90;;;;;;4974357;28;20042;-72
2022/04/13 00:34:43;;;;;;;10.95;7.13;;;13.40;99.90;;;;;;4969359;28;20830;-72
2022/04/13 00:37:09;;;;;;;12.68;7.18;;;13.40;99.90;;;;;;4972986;28;20076;-72
2022/04/13 00:39:35;;;;;;;10.35;7.38;;;13.40;99.90;;;;;;4988978;28;20053;-73
2022/04/13 00:42:06;;;;;;;13.30;7.28;;;13.30;99.90;;;;;;4973385;28;20123;-72
2022/04/13 00:44:32;;;;;;;11.20;8.02;;;13.40;99.90;;;;;;4972084;28;20060;-72
2022/04/13 00:47:03;;;;;;;11.93;7.93;;;13.30;99.90;;;;;;4974653;28;20056;-72
2022/04/13 00:49:30;;;;;;;14.48;7.50;;;13.40;99.90;;;;;;4975521;28;20045;-72
2022/04/13 00:51:59;;;;;;;10.43;7.43;;;13.30;99.90;;;;;;4972248;28;20094;-72
2022/04/13 00:54:28;;;;;;;9.98;7.55;;;13.40;99.90;;;;;;4975527;28;20048;-72
2022/04/13 00:56:56;;;;;;;10.27;7.53;;;13.40;99.90;;;;;;4974518;28;20487;-72
2022/04/13 00:59:24;;;;;;;12.80;7.75;;;13.50;99.90;;;;;;4972668;28;20052;-72
2022/04/13 01:01:53;;;;;;;10.75;7.55;;;13.50;99.90;;;;;;4977341;28;20112;-72
2022/04/13 01:04:20;;;;;;;12.40;8.25;;;13.60;99.90;;;;;;4968205;28;20863;-72
2022/04/13 01:06:45;;;;;;;12.30;8.50;;;13.60;99.90;;;;;;4970364;28;20096;-72
2022/04/13 01:09:13;;;;;;;11.40;8.13;;;13.60;99.90;;;;;;4970931;28;20125;-72
2022/04/13 01:11:40;;;;;;;12.98;9.05;;;13.60;99.90;;;;;;4970757;28;20432;-72
2022/04/13 01:14:06;;;;;;;12.02;9.30;;;13.60;99.90;;;;;;4970562;28;20052;-72
2022/04/13 01:16:34;;;;;;;13.13;9.65;;;13.50;99.90;;;;;;4973803;28;20749;-72
2022/04/13 01:18:59;;;;;;;14.48;9.98;;;13.50;99.90;;;;;;4961194;28;20057;-72
2022/04/13 01:21:47;;;;;;;14.50;9.80;;;13.40;99.90;;;;;;4971448;28;20056;-72
2022/04/13 01:24:15;;;;;;;13.40;9.30;;;13.40;99.90;;;;;;4965968;28;20070;-72
2022/04/13 01:26:41;;;;;;;12.48;9.98;;;13.40;99.90;;;;;;4975688;28;20053;-72
2022/04/13 01:29:07;;;;;;;12.95;9.70;;;13.30;99.90;;;;;;4969934;28;20097;-72
2022/04/13 01:31:34;;;;;;;13.38;10.02;;;13.40;99.90;;;;;;4973463;28;20156;-72
2022/04/13 01:34:00;;;;;;;13.43;9.57;;;13.40;99.90;;;;;;4961005;28;21012;-72
2022/04/13 01:36:27;;;;;;;13.48;10.00;;;13.40;99.90;;;;;;4957492;28;20057;-72
2022/04/13 01:38:53;;;;;;;14.07;9.80;;;13.40;99.90;;;;;;4991653;28;20085;-72
2022/04/13 01:41:18;;;;;;;12.60;10.13;;;13.40;99.90;;;;;;4982591;28;20702;-72
2022/04/13 01:43:44;;;;;;;13.45;9.63;;;13.40;99.90;;;;;;4972339;28;20057;-72
2022/04/13 01:46:11;;;;;;;14.38;9.90;;;13.40;99.90;;;;;;4966092;28;21710;-72
2022/04/13 01:48:37;;;;;;;13.45;9.50;;;13.40;99.90;;;;;;4973090;28;20401;-72
2022/04/13 01:51:03;;;;;;;13.25;10.05;;;13.40;99.90;;;;;;4973165;28;20058;-72
2022/04/13 01:53:29;;;;;;;16.23;9.52;;;13.30;99.90;;;;;;4973947;28;20644;-72
2022/04/13 01:55:55;;;;;;;14.85;9.82;;;13.30;99.90;;;;;;4961146;28;20144;-72
2022/04/13 01:58:21;;;;;;;13.80;9.98;;;13.30;99.90;;;;;;4975318;28;20057;-72
2022/04/13 02:00:53;;;;;;;13.02;10.02;;;13.30;99.90;;;;;;4978919;28;20050;-72
2022/04/13 02:03:19;;;;;;;13.73;9.73;;;13.30;99.90;;;;;;4980000;28;20266;-72
2022/04/13 02:05:46;;;;;;;13.35;10.05;;;13.30;99.90;;;;;;4984185;28;20073;-72
2022/04/13 02:08:12;;;;;;;15.20;10.00;;;13.30;99.90;;;;;;4976423;28;20098;-72
2022/04/13 02:10:37;;;;;;;13.48;10.18;;;13.10;99.90;;;;;;4971450;28;20087;-72
2022/04/13 02:13:03;;;;;;;14.38;9.93;;;13.10;99.90;;;;;;4986468;28;20835;-72
2022/04/13 02:15:29;;;;;;;15.73;10.50;;;13.10;99.90;;;;;;4976135;28;21217;-72
2022/04/13 02:17:55;;;;;;;14.50;10.32;;;13.10;99.90;;;;;;4968051;28;20097;-72
2022/04/13 02:20:20;;;;;;;13.85;10.38;;;12.80;99.90;;;;;;4992170;28;20756;-72
2022/04/13 02:22:46;;;;;;;13.55;10.07;;;12.80;99.90;;;;;;4983478;28;20162;-72
2022/04/13 02:25:13;;;;;;;13.90;11.23;;;12.90;99.90;;;;;;4956139;28;20057;-72
2022/04/13 02:27:40;;;;;;;18.35;10.75;;;12.90;99.90;;;;;;4973208;28;20508;-72
2022/04/13 02:30:06;;;;;;;13.90;10.88;;;12.90;99.90;;;;;;4990131;28;20127;-72
2022/04/13 02:32:35;;;;;;;14.20;11.02;;;12.90;99.90;;;;;;4991357;28;20049;-72
2022/04/13 02:35:01;;;;;;;14.65;11.70;;;12.90;99.90;;;;;;4996570;28;20400;-72
2022/04/13 02:37:27;;;;;;;15.38;11.38;;;12.80;99.90;;;;;;5002786;28;20819;-72
2022/04/13 02:39:53;;;;;;;16.60;11.65;;;12.80;99.90;;;;;;4976369;28;20056;-72
2022/04/13 02:42:19;;;;;;;13.65;11.43;;;12.80;99.90;;;;;;5001853;28;20040;-72
2022/04/13 02:44:45;;;;;;;15.82;11.65;;;12.70;99.90;;;;;;4996487;28;20412;-72
2022/04/13 02:47:11;;;;;;;13.85;10.70;;;12.70;99.90;;;;;;4996253;28;20103;-72
2022/04/13 02:49:37;;;;;;;14.68;11.85;;;12.70;99.90;;;;;;4990548;28;20033;-72
2022/04/13 02:52:04;;;;;;;15.25;11.45;;;12.70;99.90;;;;;;4999764;28;20822;-72
2022/04/13 02:54:30;;;;;;;14.77;11.00;;;12.70;99.90;;;;;;4978427;28;20120;-72
2022/04/13 02:56:56;;;;;;;14.50;11.55;;;12.60;99.90;;;;;;4994112;28;20049;-72
2022/04/13 02:59:21;;;;;;;15.82;11.68;;;12.40;99.90;;;;;;4999912;28;20049;-72
2022/04/13 03:01:49;;;;;;;14.77;11.68;;;12.30;99.90;;;;;;4997726;28;20111;-72
2022/04/13 03:04:16;;;;;;;17.02;11.82;;;12.30;99.90;;;;;;4992891;28;20064;-72
2022/04/13 03:06:42;;;;;;;15.73;11.90;;;12.30;99.90;;;;;;4997338;28;20060;-72
2022/04/13 03:09:08;;;;;;;15.82;11.50;;;12.30;99.90;;;;;;4977711;28;20052;-72
2022/04/13 03:11:34;;;;;;;17.35;11.30;;;12.30;99.90;;;;;;4994591;28;20394;-72
2022/04/13 03:13:59;;;;;;;16.00;11.05;;;12.20;99.90;;;;;;4976081;28;20525;-72
2022/04/13 03:16:25;;;;;;;15.40;10.82;;;12.10;99.90;;;;;;4997133;28;20614;-72
2022/04/13 03:18:51;;;;;;;15.13;12.25;;;12.10;99.90;;;;;;4991831;28;20585;-72
2022/04/13 03:21:17;;;;;;;15.55;11.50;;;12.00;99.90;;;;;;4993518;28;20056;-72
2022/04/13 03:23:44;;;;;;;15.88;11.02;;;11.90;99.90;;;;;;4978148;28;20164;-72
2022/04/13 03:26:09;;;;;;;16.15;12.10;;;11.90;99.90;;;;;;4999080;28;20129;-72
2022/04/13 03:28:35;;;;;;;17.08;12.73;;;11.80;99.90;;;;;;4995027;28;20057;-72
2022/04/13 03:31:01;;;;;;;15.70;12.05;;;11.70;99.90;;;;;;4996182;28;21224;-73
2022/04/13 03:33:27;;;;;;;17.40;12.23;;;11.70;99.90;;;;;;4981453;28;20096;-72
2022/04/13 03:35:53;;;;;;;18.40;12.43;;;11.70;99.90;;;;;;4975854;28;20519;-72
2022/04/13 03:38:18;;;;;;;17.27;12.30;;;11.70;99.90;;;;;;4979901;28;20966;-72
2022/04/13 03:40:44;;;;;;;18.20;13.48;;;11.50;99.90;;;;;;4992474;28;20053;-72
2022/04/13 03:43:10;;;;;;;16.63;12.32;;;11.50;99.90;;;;;;4978844;28;20051;-72
2022/04/13 03:45:36;;;;;;;15.10;11.52;;;11.60;99.90;;;;;;4990074;28;20057;-72
2022/04/13 03:48:02;;;;;;;15.13;11.38;;;11.70;99.90;;;;;;4979575;28;20052;-72
2022/04/13 03:50:28;;;;;;;16.50;11.30;;;11.80;99.90;;;;;;4978390;28;20061;-72
2022/04/13 03:52:54;;;;;;;15.73;10.80;;;11.80;99.90;;;;;;4995960;28;21115;-72
2022/04/13 03:55:22;;;;;;;13.23;10.63;;;11.80;99.90;;;;;;4979469;28;20052;-72
2022/04/13 03:57:51;;;;;;;13.88;10.52;;;11.80;99.90;;;;;;4979072;28;20049;-72
2022/04/13 04:00:17;;;;;;;17.77;10.73;;;11.80;99.90;;;;;;4997156;28;20054;-72
2022/04/13 04:02:43;;;;;;;17.15;10.75;;;11.80;99.90;;;;;;4998720;28;20050;-71
2022/04/13 04:05:11;;;;;;;17.17;11.00;;;11.90;99.90;;;;;;4996509;28;20125;-72
2022/04/13 04:07:38;;;;;;;20.50;11.02;;;11.90;99.90;;;;;;5001568;28;20040;-72
2022/04/13 04:10:05;;;;;;;16.65;11.00;;;11.90;99.90;;;;;;4997872;28;20053;-72
2022/04/13 04:12:37;;;;;;;21.05;11.07;;;12.00;99.90;;;;;;4996798;28;20041;-72
2022/04/13 04:15:03;;;;;;;21.95;11.85;;;11.90;99.90;;;;;;4992522;28;20603;-72
2022/04/13 04:17:29;;;;;;;20.00;11.65;;;11.90;99.90;;;;;;4993605;28;20674;-72
2022/04/13 04:19:55;;;;;;;20.20;10.98;;;11.80;99.90;;;;;;4991664;28;20047;-72
2022/04/13 04:22:24;;;;;;;17.17;11.00;;;11.80;99.90;;;;;;4975159;28;20278;-72
2022/04/13 04:24:50;;;;;;;14.88;11.05;;;11.80;99.90;;;;;;4989379;28;20049;-72
2022/04/13 04:27:16;;;;;;;16.77;11.40;;;11.70;99.90;;;;;;4996017;28;20115;-72
2022/04/13 04:29:42;;;;;;;18.75;11.82;;;11.60;99.90;;;;;;4993317;28;20149;-72
2022/04/13 04:32:08;;;;;;;15.85;11.50;;;11.50;99.90;;;;;;5002449;28;20076;-72
2022/04/13 04:34:34;;;;;;;16.23;11.20;;;11.50;99.90;;;;;;5008555;28;20072;-72
2022/04/13 04:37:00;;;;;;;20.20;11.85;;;11.40;99.90;;;;;;5008888;28;20103;-72
2022/04/13 04:39:26;;;;;;;22.55;10.90;;;11.40;99.90;;;;;;5010025;28;20053;-72
2022/04/13 04:41:52;;;;;;;21.23;12.05;;;11.40;99.90;;;;;;5009080;28;20041;-72
2022/04/13 04:44:18;;;;;;;22.48;11.68;;;11.40;99.90;;;;;;5003726;28;20054;-72
2022/04/13 04:46:44;;;;;;;20.83;11.77;;;11.30;99.90;;;;;;4988950;28;20053;-72
2022/04/13 04:49:10;;;;;;;20.67;11.25;;;11.30;99.90;;;;;;5010097;28;20042;-72
2022/04/13 04:51:36;;;;;;;16.60;11.93;;;11.20;99.90;;;;;;5003229;28;20558;-72
2022/04/13 04:54:03;;;;;;;18.67;11.60;;;11.30;99.90;;;;;;4990975;28;20049;-72
2022/04/13 04:56:29;;;;;;;17.40;11.10;;;11.40;99.90;;;;;;5004778;28;20076;-72
2022/04/13 04:58:56;;;;;;;17.88;11.45;;;11.40;99.90;;;;;;5003946;28;20045;-72
2022/04/13 05:01:22;;;;;;;17.23;12.02;;;11.50;99.90;;;;;;4985984;28;20088;-72
2022/04/13 05:03:50;;;;;;;18.83;11.98;;;11.60;99.90;;;;;;5005965;28;20168;-72
2022/04/13 05:06:21;;;;;;;14.52;11.27;;;11.70;99.90;;;;;;5004271;28;20255;-72
2022/04/13 05:08:51;;;;;;;16.50;11.23;;;11.60;99.90;;;;;;5002354;28;20130;-72
2022/04/13 05:11:17;;;;;;;25.75;11.60;;;11.70;99.90;;;;;;5007246;28;20668;-72
2022/04/13 05:13:46;;;;;;;16.52;11.63;;;11.70;99.90;;;;;;4991295;28;20044;-72
2022/04/13 05:16:13;;;;;;;15.60;10.75;;;11.80;99.90;;;;;;5006542;28;20091;-72
2022/04/13 05:18:40;;;;;;;18.77;12.45;;;11.80;99.90;;;;;;5006920;28;20479;-72
2022/04/13 05:21:06;;;;;;;17.23;11.23;;;11.90;99.90;;;;;;5006985;28;20041;-72
2022/04/13 05:23:32;;;;;;;16.00;11.23;;;11.90;99.90;;;;;;4990067;28;20131;-72
2022/04/13 05:25:57;;;;;;;15.43;11.15;;;11.90;99.90;;;;;;4988152;28;20098;-72
2022/04/13 05:28:23;;;;;;;24.52;12.15;;;12.00;99.90;;;;;;5010529;28;20100;-72
2022/04/13 05:30:49;;;;;;;22.48;11.48;;;12.10;99.90;;;;;;4989333;28;20248;-72
2022/04/13 05:33:15;;;;;;;19.08;11.32;;;12.20;99.90;;;;;;5009652;28;20076;-72
2022/04/13 05:35:41;;;;;;;16.27;11.57;;;12.40;99.90;;;;;;4986495;28;20922;-72
2022/04/13 05:38:07;;;;;;;22.42;11.93;;;12.40;99.90;;;;;;5010387;28;20088;-72
2022/04/13 05:40:33;;;;;;;30.42;12.38;;;12.50;99.90;;;;;;5008929;28;20538;-72
2022/04/13 05:42:59;;;;;;;21.17;11.70;;;12.60;99.90;;;;;;5002536;28;20048;-72
2022/04/13 05:45:25;;;;;;;30.00;12.73;;;12.70;99.90;;;;;;5006807;28;20045;-72
2022/04/13 05:47:51;;;;;;;21.52;11.65;;;12.80;99.90;;;;;;4985073;28;20151;-72
2022/04/13 05:50:17;;;;;;;18.38;11.48;;;12.90;99.90;;;;;;5008462;28;20559;-72
2022/04/13 05:52:44;;;;;;;23.50;12.32;;;13.00;99.90;;;;;;5005391;28;20057;-72
2022/04/13 05:55:10;;;;;;;23.38;12.38;;;13.10;99.90;;;;;;4997503;28;20049;-72
2022/04/13 05:57:36;;;;;;;19.60;11.95;;;13.20;99.90;;;;;;5010153;28;20081;-72
2022/04/13 06:00:07;;;;;;;19.10;12.57;;;13.30;99.90;;;;;;5009161;28;20041;-72
2022/04/13 06:02:35;;;;;;;23.40;13.40;;;13.40;99.90;;;;;;4994218;28;20045;-72
2022/04/13 06:05:01;;;;;;;23.48;13.30;;;13.60;99.90;;;;;;4990640;28;20810;-72
2022/04/13 06:07:27;;;;;;;28.00;12.65;;;13.70;99.90;;;;;;5012335;28;20048;-72
2022/04/13 06:09:52;;;;;;;26.17;12.88;;;13.90;99.90;;;;;;5007188;28;20124;-72
2022/04/13 06:12:23;;;;;;;19.52;12.38;;;14.00;99.90;;;;;;4995150;28;20282;-72
2022/04/13 06:14:49;;;;;;;25.70;13.20;;;14.10;99.90;;;;;;5014395;28;20089;-72
2022/04/13 06:17:16;;;;;;;117.13;17.77;;;14.10;99.90;;;;;;5008863;28;20045;-72
2022/04/13 06:19:42;;;;;;;22.35;12.50;;;14.20;99.90;;;;;;5009104;28;20148;-72
2022/04/13 06:22:08;;;;;;;17.33;12.25;;;14.30;99.90;;;;;;4991546;28;20056;-72
2022/04/13 06:24:35;;;;;;;18.67;12.82;;;14.30;99.90;;;;;;5010115;28;20511;-72
2022/04/13 06:27:00;;;;;;;25.90;12.82;;;14.10;99.90;;;;;;5006950;28;20110;-72
2022/04/13 06:29:27;;;;;;;19.75;13.50;;;14.10;99.90;;;;;;5008740;28;20064;-72
2022/04/13 06:31:53;;;;;;;24.20;13.45;;;14.10;99.90;;;;;;5006985;28;20057;-72
2022/04/13 06:34:19;;;;;;;20.60;13.52;;;14.10;99.90;;;;;;4992739;28;20353;-72
2022/04/13 06:36:44;;;;;;;25.30;13.55;;;14.30;99.90;;;;;;4992529;28;20053;-72
2022/04/13 06:39:10;;;;;;;20.58;13.07;;;14.50;99.90;;;;;;5013695;28;20053;-72
2022/04/13 06:41:36;;;;;;;19.50;12.43;;;14.50;99.90;;;;;;5005619;28;20052;-72
2022/04/13 06:44:02;;;;;;;27.38;12.65;;;14.60;99.90;;;;;;5009704;28;20045;-72
2022/04/13 06:46:28;;;;;;;20.42;12.73;;;14.90;99.90;;;;;;5006643;28;20042;-72
2022/04/13 06:48:54;;;;;;;21.83;12.30;;;15.20;99.90;;;;;;5010654;28;20088;-72
2022/04/13 06:51:20;;;;;;;19.02;12.60;;;15.30;99.90;;;;;;4980468;28;20474;-72
2022/04/13 06:53:46;;;;;;;15.52;11.25;;;15.50;99.90;;;;;;5009405;28;20085;-72
2022/04/13 06:56:12;;;;;;;16.83;11.85;;;15.30;99.90;;;;;;5012807;28;20052;-72
2022/04/13 06:58:38;;;;;;;19.50;11.60;;;15.30;99.90;;;;;;4988407;28;20813;-72
2022/04/13 07:01:03;;;;;;;17.42;11.38;;;15.50;99.90;;;;;;5012280;28;20045;-72
2022/04/13 07:03:30;;;;;;;16.88;11.77;;;15.70;99.90;;;;;;5007562;28;20041;-73
2022/04/13 07:05:56;;;;;;;17.30;11.63;;;16.00;99.90;;;;;;4992176;28;20061;-72
2022/04/13 07:08:22;;;;;;;24.10;11.52;;;16.10;99.90;;;;;;5004310;28;20118;-72
2022/04/13 07:10:48;;;;;;;18.30;12.18;;;16.30;99.90;;;;;;5010849;28;20475;-72
2022/04/13 07:13:16;;;;;;;20.55;11.15;;;16.30;99.90;;;;;;5001600;28;20661;-72
2022/04/13 07:15:42;;;;;;;14.65;11.10;;;16.50;99.90;;;;;;5001285;28;20085;-72
2022/04/13 07:18:09;;;;;;;16.33;10.77;;;16.60;99.90;;;;;;5004864;28;20124;-73
2022/04/13 07:20:35;;;;;;;16.42;10.77;;;16.60;99.90;;;;;;4992720;28;20562;-72
2022/04/13 07:23:00;;;;;;;17.02;10.88;;;16.60;99.90;;;;;;4996407;28;20045;-72
2022/04/13 07:25:26;;;;;;;16.90;10.63;;;16.70;99.90;;;;;;4983919;28;20057;-73
2022/04/13 07:27:52;;;;;;;17.73;10.75;;;16.90;99.90;;;;;;4996435;28;20044;-73
2022/04/13 07:30:19;;;;;;;15.65;9.48;;;17.00;99.90;;;;;;4995400;28;20053;-73
2022/04/13 07:32:47;;;;;;;13.10;8.15;;;17.20;99.90;;;;;;4981517;28;20126;-73
2022/04/13 07:35:14;;;;;;;27.45;8.70;;;17.30;99.90;;;;;;4995910;28;20107;-73
2022/04/13 07:37:40;;;;;;;14.93;7.20;;;17.50;99.90;;;;;;4998722;28;20045;-73
2022/04/13 07:40:11;;;;;;;14.30;7.68;;;17.60;99.90;;;;;;4982556;28;20048;-73
2022/04/13 07:42:38;;;;;;;12.02;8.65;;;17.60;99.90;;;;;;4978717;28;20041;-73
2022/04/13 07:45:05;;;;;;;15.38;8.68;;;17.90;99.90;;;;;;4993976;28;20512;-73
2022/04/13 07:47:31;;;;;;;19.50;9.38;;;17.80;99.90;;;;;;4996352;28;20240;-73
2022/04/13 07:49:58;;;;;;;13.48;8.52;;;17.50;99.90;;;;;;4979659;28;20051;-73
2022/04/13 07:52:24;;;;;;;13.48;7.63;;;17.70;99.90;;;;;;4996494;28;20391;-73
2022/04/13 07:54:50;;;;;;;11.07;6.05;;;17.60;99.90;;;;;;4982255;28;20480;-73
2022/04/13 07:57:16;;;;;;;13.35;6.28;;;17.70;99.90;;;;;;4997720;28;20048;-73
2022/04/13 07:59:42;;;;;;;11.32;6.32;;;17.70;99.90;;;;;;4998652;28;20052;-73
2022/04/13 08:02:09;;;;;;;11.00;5.85;;;17.60;99.90;;;;;;4981257;28;20067;-73
2022/04/13 08:04:36;;;;;;;13.77;6.45;;;17.70;99.90;;;;;;4991839;28;20650;-74
2022/04/13 08:07:02;;;;;;;12.15;6.80;;;17.70;99.90;;;;;;4992440;28;20052;-73
2022/04/13 08:09:28;;;;;;;12.18;6.57;;;17.90;99.90;;;;;;4980636;28;20126;-73
2022/04/13 08:11:54;;;;;;;9.10;5.80;;;18.00;99.90;;;;;;4973584;28;20175;-73
2022/04/13 08:14:23;;;;;;;9.50;5.68;;;18.30;99.90;;;;;;5002483;28;20041;-73
2022/04/13 08:16:50;;;;;;;10.77;5.82;;;18.40;99.90;;;;;;4995541;28;20124;-73
2022/04/13 08:19:16;;;;;;;9.23;5.53;;;18.60;99.90;;;;;;4998735;28;20049;-73
2022/04/13 08:21:42;;;;;;;14.90;5.60;;;18.70;99.90;;;;;;5004698;28;20042;-73
2022/04/13 08:24:08;;;;;;;10.55;5.70;;;18.50;99.90;;;;;;4967878;28;20681;-73
2022/04/13 08:26:35;;;;;;;10.05;5.40;;;18.50;99.90;;;;;;4997180;28;20049;-73
2022/04/13 08:29:01;;;;;;;10.80;5.80;;;18.40;99.90;;;;;;5002787;28;20116;-73
2022/04/13 08:31:27;;;;;;;10.20;5.50;;;18.40;99.90;;;;;;4984163;28;20056;-73
2022/04/13 08:33:53;;;;;;;12.43;6.10;;;18.10;99.90;;;;;;4979717;28;20505;-73
2022/04/13 08:36:19;;;;;;;12.43;6.00;;;18.10;99.90;;;;;;4982801;28;20046;-73
2022/04/13 08:38:45;;;;;;;13.13;5.70;;;18.00;99.90;;;;;;4998621;28;21117;-73
2022/04/13 08:41:20;;;;;;;11.73;6.40;;;18.00;99.90;;;;;;4996674;28;20094;-73
2022/04/13 08:44:01;;;;;;;12.48;6.80;;;17.90;99.90;;;;;;4997266;28;20083;-73
2022/04/13 08:46:28;;;;;;;14.00;7.05;;;17.90;99.90;;;;;;4998728;28;20053;-73
2022/04/13 08:48:56;;;;;;;13.88;7.35;;;18.00;99.90;;;;;;4965664;28;20701;-73
2022/04/13 08:51:24;;;;;;;12.57;7.38;;;18.00;99.90;;;;;;4978903;28;20769;-73
2022/04/13 08:54:09;;;;;;;17.67;8.40;;;17.90;99.90;;;;;;4991351;28;20050;-73
2022/04/13 08:56:36;;;;;;;11.70;7.20;;;18.10;99.90;;;;;;5001060;28;20238;-73
2022/04/13 08:59:30;;;;;;;12.07;7.07;;;18.20;99.90;;;;;;4985220;28;20056;-73
2022/04/13 09:02:27;;;;;;;11.13;7.28;;;18.20;99.90;;;;;;4998361;28;20092;-73
2022/04/13 09:04:59;;;;;;;13.50;7.07;;;18.20;99.90;;;;;;4999630;28;20484;-73
2022/04/13 09:07:31;;;;;;;12.45;6.82;;;18.10;99.90;;;;;;5001868;28;20041;-73
2022/04/13 09:10:00;;;;;;;11.65;7.28;;;17.90;99.90;;;;;;4994932;28;20052;-73
2022/04/13 09:12:30;;;;;;;14.25;7.65;;;17.80;99.90;;;;;;4979275;28;20048;-73
2022/04/13 09:15:04;;;;;;;12.43;7.35;;;17.90;99.90;;;;;;4981486;28;20079;-73
2022/04/13 09:17:30;;;;;;;12.90;7.75;;;18.20;99.90;;;;;;4998766;28;20099;-73
2022/04/13 09:19:58;;;;;;;12.75;7.00;;;18.40;99.90;;;;;;4998266;28;20378;-74
2022/04/13 09:22:25;;;;;;;12.93;7.30;;;18.40;99.90;;;;;;5000991;28;20051;-73
2022/04/13 09:24:51;;;;;;;11.82;7.53;;;18.60;99.90;;;;;;4998274;28;20058;-74
2022/04/13 09:27:20;;;;;;;12.05;7.63;;;18.90;99.90;;;;;;4975145;28;20641;-73
2022/04/13 09:29:47;;;;;;;14.32;7.78;;;18.70;99.90;;;;;;4995464;28;20203;-73
2022/04/13 09:32:14;;;;;;;13.13;8.10;;;18.60;99.90;;;;;;4993927;28;20686;-73
2022/04/13 09:34:40;;;;;;;11.70;7.28;;;18.70;99.90;;;;;;4999730;28;20072;-73
2022/04/13 09:37:07;;;;;;;12.45;7.30;;;18.80;99.90;;;;;;4996433;28;20601;-73
2022/04/13 09:39:33;;;;;;;12.65;7.13;;;18.80;99.90;;;;;;4974625;28;20044;-73
2022/04/13 09:42:03;;;;;;;13.70;7.60;;;18.80;99.90;;;;;;4975360;28;20049;-73
2022/04/13 09:44:32;;;;;;;12.68;7.40;;;18.80;99.90;;;;;;4991897;28;20583;-73
2022/04/13 09:47:11;;;;;;;10.27;7.07;;;18.70;99.90;;;;;;4991188;28;20068;-73
2022/04/13 09:49:52;;;;;;;14.00;8.32;;;18.80;99.90;;;;;;4986131;28;20046;-73
2022/04/13 09:52:20;;;;;;;14.02;8.20;;;19.00;99.90;;;;;;4972321;28;20051;-73
2022/04/13 09:54:46;;;;;;;12.00;7.20;;;19.10;99.90;;;;;;4988580;28;20057;-74
2022/04/13 09:57:25;;;;;;;14.05;7.85;;;19.40;99.90;;;;;;4970522;28;20045;-74
2022/04/13 10:00:05;;;;;;;18.80;8.75;;;19.90;99.90;;;;;;4998754;28;20068;-74
2022/04/13 10:02:39;;;;;;;12.77;8.07;;;20.00;99.90;;;;;;4989224;28;20054;-74
2022/04/13 10:05:07;;;;;;;12.75;8.27;;;20.20;99.90;;;;;;4996540;28;20497;-73
2022/04/13 10:07:34;;;;;;;11.40;5.95;;;20.40;99.90;;;;;;4992280;28;20100;-74
2022/04/13 10:10:02;;;;;;;11.82;6.55;;;20.50;99.90;;;;;;4989427;28;20132;-74
2022/04/13 10:12:27;;;;;;;11.13;6.25;;;20.50;99.90;;;;;;4989017;28;20077;-73
2022/04/13 10:15:07;;;;;;;11.18;6.03;;;20.60;99.90;;;;;;4988952;28;20120;-73
2022/04/13 10:17:33;;;;;;;11.23;5.72;;;20.60;99.90;;;;;;4992911;28;20447;-74
2022/04/13 10:19:59;;;;;;;11.00;5.90;;;20.30;99.90;;;;;;4956837;28;20536;-73
2022/04/13 10:22:25;;;;;;;12.98;6.38;;;20.10;99.90;;;;;;4993933;28;20045;-74
2022/04/13 10:24:51;;;;;;;12.23;6.75;;;19.60;99.90;;;;;;4979520;28;20535;-74
2022/04/13 10:27:19;;;;;;;15.40;7.57;;;19.80;99.90;;;;;;4992868;28;20056;-74
2022/04/13 10:29:49;;;;;;;13.45;6.95;;;19.80;99.90;;;;;;4993951;28;20075;-74
2022/04/13 10:32:16;;;;;;;22.45;7.90;;;19.80;99.90;;;;;;4988049;28;20041;-73
2022/04/13 10:34:43;;;;;;;11.88;6.90;;;19.80;99.90;;;;;;4984219;28;20472;-74
2022/04/13 10:37:11;;;;;;;10.75;6.28;;;19.80;99.90;;;;;;4967687;28;21031;-74
2022/04/13 10:39:38;;;;;;;13.98;6.80;;;19.80;99.90;;;;;;4984306;28;20056;-74
2022/04/13 10:42:05;;;;;;;10.90;7.30;;;20.00;99.90;;;;;;4974812;28;20516;-74
2022/04/13 10:44:42;;;;;;;12.05;7.18;;;19.80;99.90;;;;;;4984008;28;20041;-74
2022/04/13 10:47:10;;;;;;;11.45;7.40;;;19.90;99.90;;;;;;4989720;28;20136;-74
2022/04/13 10:49:53;;;;;;;11.68;7.00;;;19.90;99.90;;;;;;4987723;28;20543;-74
2022/04/13 10:52:39;;;;;;;13.13;7.18;;;19.90;99.90;;;;;;4995414;28;21176;-74
2022/04/13 10:55:11;;;;;;;11.70;7.65;;;20.00;99.90;;;;;;4999868;28;22387;-73
2022/04/13 10:57:46;;;;;;;11.90;7.10;;;19.80;99.90;;;;;;5010679;28;20236;-74
2022/04/13 11:00:16;;;;;;;12.10;7.95;;;19.70;99.90;;;;;;5010831;28;20047;-74
2022/04/13 11:02:44;;;;;;;13.60;8.10;;;19.90;99.90;;;;;;5006140;28;20049;-74
2022/04/13 11:05:12;;;;;;;11.70;8.40;;;19.80;99.90;;;;;;4974625;28;20652;-74
2022/04/13 11:07:39;;;;;;;11.98;8.10;;;20.10;99.90;;;;;;5007192;28;20123;-73
2022/04/13 11:10:06;;;;;;;11.23;7.63;;;19.90;99.90;;;;;;4992874;28;20049;-74
2022/04/13 11:12:33;;;;;;;13.80;8.00;;;20.00;99.90;;;;;;5005309;28;20192;-74
2022/04/13 11:15:05;;;;;;;13.07;8.13;;;19.80;99.90;;;;;;5010086;28;20769;-74
2022/04/13 11:17:30;;;;;;;12.65;7.95;;;19.80;99.90;;;;;;4989166;28;20118;-74
2022/04/13 11:20:16;;;;;;;14.80;8.48;;;19.80;99.90;;;;;;4990796;28;20053;-74
2022/04/13 11:22:43;;;;;;;12.32;8.07;;;19.80;99.90;;;;;;5009918;28;20095;-75
2022/04/13 11:25:09;;;;;;;15.63;8.40;;;19.60;99.90;;;;;;4995263;28;20055;-74
2022/04/13 11:27:53;;;;;;;12.82;8.07;;;19.70;99.90;;;;;;4991869;28;20687;-74
2022/04/13 11:30:20;;;;;;;15.63;8.95;;;19.50;99.90;;;;;;5000219;28;20064;-74
2022/04/13 11:32:47;;;;;;;14.68;9.00;;;19.40;99.90;;;;;;4993364;28;20044;-74
2022/04/13 11:35:25;;;;;;;13.43;8.85;;;19.20;99.90;;;;;;4980210;28;20053;-74
2022/04/13 11:38:08;;;;;;;12.52;8.68;;;19.00;99.90;;;;;;4995152;28;20526;-74
2022/04/13 11:40:34;;;;;;;12.93;8.70;;;19.00;99.90;;;;;;4995777;28;20057;-74
2022/04/13 11:43:03;;;;;;;14.88;9.00;;;18.90;99.90;;;;;;4994969;28;20049;-75
2022/04/13 11:45:30;;;;;;;12.35;8.95;;;18.70;99.90;;;;;;4981849;28;20140;-74
2022/04/13 11:48:01;;;;;;;12.63;8.27;;;18.60;99.90;;;;;;4981381;28;20064;-74
2022/04/13 11:50:36;;;;;;;16.50;8.63;;;18.50;99.90;;;;;;5008255;28;20045;-74
2022/04/13 11:53:13;;;;;;;14.68;8.68;;;18.40;99.90;;;;;;5009714;28;20463;-74
2022/04/13 11:55:46;;;;;;;14.20;7.70;;;18.40;99.90;;;;;;4995685;28;20163;-74
2022/04/13 11:58:13;;;;;;;14.53;8.43;;;18.30;99.90;;;;;;5003182;28;20056;-73
2022/04/13 12:00:44;;;;;;;14.48;8.23;;;18.30;99.90;;;;;;4976881;28;20055;-74
2022/04/13 12:03:30;;;;;;;13.00;8.63;;;18.30;99.90;;;;;;4980896;28;20080;-74
2022/04/13 12:06:02;;;;;;;14.25;7.85;;;18.40;99.90;;;;;;4988096;28;20041;-74
2022/04/13 12:08:30;;;;;;;16.63;7.85;;;18.50;99.90;;;;;;4992148;28;20052;-74
2022/04/13 12:11:04;;;;;;;11.27;7.22;;;18.50;99.90;;;;;;4998709;28;20048;-74
2022/04/13 12:13:43;;;;;;;11.60;6.95;;;18.50;99.90;;;;;;4974910;28;20049;-74
2022/04/13 12:16:11;;;;;;;10.88;6.45;;;18.60;99.90;;;;;;4997087;28;20132;-74
2022/04/13 12:18:55;;;;;;;9.73;5.55;;;18.50;99.90;;;;;;5010064;28;20049;-74
2022/04/13 12:21:23;;;;;;;8.82;5.68;;;18.70;99.90;;;;;;5012546;28;20055;-74
2022/04/13 12:23:50;;;;;;;9.50;5.53;;;18.80;99.90;;;;;;5009755;28;20065;-73
2022/04/13 12:26:17;;;;;;;10.07;5.65;;;18.90;99.90;;;;;;5007629;28;20090;-73
2022/04/13 12:28:43;;;;;;;11.20;5.70;;;18.90;99.90;;;;;;5005259;28;20063;-74
2022/04/13 12:31:13;;;;;;;10.45;6.63;;;18.80;99.90;;;;;;5011951;28;20057;-74
2022/04/13 12:33:40;;;;;;;14.45;6.47;;;18.80;99.90;;;;;;5001667;28;20063;-74
2022/04/13 12:36:08;;;;;;;12.57;6.43;;;18.70;99.90;;;;;;4990666;28;20086;-74